createdAt,value
2022-08-16T00:00:59.792Z,100333.59
2022-08-16T00:03:32.076Z,100333.73
2022-08-16T00:06:06.096Z,100333.05
2022-08-16T00:08:40.096Z,100336.69
2022-08-16T00:11:15.892Z,100339.53
2022-08-16T00:13:54.089Z,100347.70
2022-08-16T00:17:05.645Z,100336.41
2022-08-16T00:18:56.111Z,100342.07
2022-08-16T00:21:29.213Z,100334.31
2022-08-16T00:24:04.958Z,100333.33
2022-08-16T00:26:44.504Z,100339.40
2022-08-16T00:29:08.975Z,100344.44
2022-08-16T00:31:58.957Z,100338.41
2022-08-16T00:34:18.502Z,100334.05
2022-08-16T00:36:55.608Z,100336.00
2022-08-16T00:39:25.277Z,100341.35
2022-08-16T00:41:57.884Z,100335.31
2022-08-16T00:44:32.033Z,100338.67
2022-08-16T00:47:08.764Z,100338.13
2022-08-16T00:49:44.904Z,100343.89
2022-08-16T00:52:30.190Z,100341.48
2022-08-16T00:54:49.075Z,100342.06
2022-08-16T00:57:23.976Z,100333.62
2022-08-16T00:59:59.573Z,100343.73
2022-08-16T01:02:33.094Z,100346.58
2022-08-16T01:05:10.302Z,100336.84
2022-08-16T01:07:50.500Z,100342.19
2022-08-16T01:10:16.184Z,100340.38
2022-08-16T01:12:47.356Z,100346.58
2022-08-16T01:15:19.801Z,100346.41
2022-08-16T01:17:56.035Z,100350.94
2022-08-16T01:20:34.097Z,100349.94
2022-08-16T01:23:21.221Z,100348.95
2022-08-16T01:26:00.248Z,100355.30
2022-08-16T01:28:30.781Z,100357.41
2022-08-16T01:31:05.773Z,100349.52
2022-08-16T01:33:38.846Z,100356.95
2022-08-16T01:36:13.263Z,100361.48
2022-08-16T01:38:53.134Z,100358.09
2022-08-16T01:41:29.723Z,100360.07
2022-08-16T01:44:03.138Z,100358.52
2022-08-16T01:46:40.709Z,100355.26
2022-08-16T01:49:42.792Z,100361.86
2022-08-16T01:52:04.968Z,100366.48
2022-08-16T01:54:56.335Z,100363.25
2022-08-16T01:57:31.543Z,100366.33
2022-08-16T02:00:06.188Z,100361.25
2022-08-16T02:02:42.453Z,100359.83
2022-08-16T02:05:14.874Z,100359.14
2022-08-16T02:07:46.987Z,100366.30
2022-08-16T02:10:21.780Z,100354.91
2022-08-16T02:13:00.644Z,100360.52
2022-08-16T02:15:35.475Z,100367.81
2022-08-16T02:18:07.661Z,100368.54
2022-08-16T02:20:42.795Z,100363.20
2022-08-16T02:23:18.338Z,100367.42
2022-08-16T02:25:53.823Z,100370.66
2022-08-16T02:28:26.287Z,100370.52
2022-08-16T02:30:59.978Z,100366.59
2022-08-16T02:33:43.487Z,100371.60
2022-08-16T02:36:07.972Z,100361.97
2022-08-16T02:38:41.948Z,100367.19
2022-08-16T02:41:14.936Z,100374.22
2022-08-16T02:43:47.264Z,100368.73
2022-08-16T02:46:21.014Z,100373.66
2022-08-16T02:48:55.022Z,100365.27
2022-08-16T02:51:28.955Z,100374.97
2022-08-16T02:54:03.088Z,100373.02
2022-08-16T02:56:35.547Z,100377.23
2022-08-16T02:59:11.734Z,100372.88
2022-08-16T03:01:43.516Z,100371.03
2022-08-16T03:04:29.816Z,100380.05
2022-08-16T03:06:57.241Z,100380.31
2022-08-16T03:09:37.999Z,100383.13
2022-08-16T03:12:10.202Z,100385.92
2022-08-16T03:14:44.115Z,100382.53
2022-08-16T03:17:16.571Z,100384.22
2022-08-16T03:19:59.780Z,100387.78
2022-08-16T03:22:28.134Z,100381.54
2022-08-16T03:25:00.794Z,100392.03
2022-08-16T03:27:35.934Z,100384.84
2022-08-16T03:30:16.156Z,100398.63
2022-08-16T03:32:51.342Z,100396.25
2022-08-16T03:35:32.582Z,100397.09
2022-08-16T03:38:35.041Z,100398.80
2022-08-16T03:40:42.626Z,100392.91
2022-08-16T03:43:19.621Z,100386.98
2022-08-16T03:45:53.443Z,100387.98
2022-08-16T03:48:36.775Z,100393.61
2022-08-16T03:51:12.385Z,100382.05
2022-08-16T03:54:01.026Z,100388.28
2022-08-16T03:56:21.317Z,100392.78
2022-08-16T03:58:55.271Z,100389.92
2022-08-16T04:01:29.956Z,100395.58
2022-08-16T04:04:02.433Z,100391.03
2022-08-16T04:06:36.246Z,100395.79
2022-08-16T04:09:12.504Z,100391.55
2022-08-16T04:11:43.338Z,100389.27
2022-08-16T04:14:31.037Z,100390.23
2022-08-16T04:16:50.465Z,100393.20
2022-08-16T04:19:26.294Z,100386.52
2022-08-16T04:22:00.706Z,100389.17
2022-08-16T04:24:35.149Z,100386.27
2022-08-16T04:27:09.070Z,100388.22
2022-08-16T04:29:44.575Z,100399.73
2022-08-16T04:32:16.466Z,100396.28
2022-08-16T04:34:50.601Z,100395.41
2022-08-16T04:37:23.660Z,100392.52
2022-08-16T04:39:59.729Z,100387.08
2022-08-16T04:42:35.923Z,100397.45
2022-08-16T04:45:08.817Z,100390.00
2022-08-16T04:47:41.280Z,100397.89
2022-08-16T04:50:19.676Z,100399.87
2022-08-16T04:53:08.243Z,100394.88
2022-08-16T04:55:44.718Z,100390.45
2022-08-16T04:58:45.543Z,100393.20
2022-08-16T05:00:50.941Z,100391.89
2022-08-16T05:03:26.141Z,100393.11
2022-08-16T05:06:05.304Z,100393.47
2022-08-16T05:08:34.267Z,100389.78
2022-08-16T05:11:20.575Z,100386.63
2022-08-16T05:13:53.415Z,100386.68
2022-08-16T05:16:30.752Z,100390.39
2022-08-16T05:19:11.379Z,100387.94
2022-08-16T05:21:42.258Z,100385.11
2022-08-16T05:24:15.372Z,100385.34
2022-08-16T05:26:51.580Z,100380.19
2022-08-16T05:29:57.501Z,100388.27
2022-08-16T05:32:03.713Z,100384.95
2022-08-16T05:34:37.855Z,100384.83
2022-08-16T05:37:11.993Z,100380.30
2022-08-16T05:39:44.590Z,100384.19
2022-08-16T05:42:19.692Z,100384.91
2022-08-16T05:44:52.530Z,100381.09
2022-08-16T05:47:25.051Z,100380.09
2022-08-16T05:49:59.438Z,100377.41
2022-08-16T05:52:33.094Z,100384.48
2022-08-16T05:55:07.581Z,100383.64
2022-08-16T05:57:41.955Z,100382.14
2022-08-16T06:00:22.526Z,100384.84
2022-08-16T06:02:51.072Z,100379.45
2022-08-16T06:05:41.604Z,100374.78
2022-08-16T06:08:31.489Z,100385.72
2022-08-16T06:11:02.792Z,100384.01
2022-08-16T06:13:24.463Z,100380.93
2022-08-16T06:15:57.246Z,100393.61
2022-08-16T06:18:30.798Z,100388.47
2022-08-16T06:21:03.391Z,100373.31
2022-08-16T06:23:37.303Z,100373.36
2022-08-16T06:26:11.407Z,100360.67
2022-08-16T06:28:45.664Z,100370.39
2022-08-16T06:31:25.007Z,100374.09
2022-08-16T06:33:54.628Z,100374.41
2022-08-16T06:36:27.291Z,100379.84
2022-08-16T06:39:05.041Z,100371.30
2022-08-16T06:41:40.201Z,100368.79
2022-08-16T06:44:21.183Z,100367.73
2022-08-16T06:46:50.605Z,100383.86
2022-08-16T06:49:22.339Z,100374.73
2022-08-16T06:51:55.390Z,100376.44
2022-08-16T06:54:30.724Z,100372.16
2022-08-16T06:57:05.660Z,100370.05
2022-08-16T06:59:53.117Z,100377.58
2022-08-16T07:02:33.179Z,100372.77
2022-08-16T07:04:49.338Z,100375.89
2022-08-16T07:07:24.599Z,100367.19
2022-08-16T07:09:58.086Z,100370.11
2022-08-16T07:12:46.995Z,100381.43
2022-08-16T07:15:08.579Z,100355.53
2022-08-16T07:17:42.580Z,100363.74
2022-08-16T07:20:34.945Z,100360.48
2022-08-16T07:22:53.135Z,100369.38
2022-08-16T07:25:27.941Z,100365.23
2022-08-16T07:28:02.006Z,100370.74
2022-08-16T07:30:46.519Z,100361.14
2022-08-16T07:33:51.453Z,100374.12
2022-08-16T07:35:51.834Z,100374.53
2022-08-16T07:38:31.655Z,100385.62
2022-08-16T07:41:01.921Z,100384.48
2022-08-16T07:43:40.487Z,100383.25
2022-08-16T07:46:38.547Z,100390.11
2022-08-16T07:48:47.552Z,100391.70
2022-08-16T07:51:20.878Z,100379.01
2022-08-16T07:54:09.676Z,100400.46
2022-08-16T07:56:33.765Z,100382.56
2022-08-16T07:59:03.713Z,100376.31
2022-08-16T08:01:38.506Z,100384.91
2022-08-16T08:04:13.038Z,100375.59
2022-08-16T08:06:51.181Z,100375.39
2022-08-16T08:09:21.954Z,100369.09
2022-08-16T08:11:59.804Z,100368.59
2022-08-16T08:14:29.746Z,100366.73
2022-08-16T08:17:02.021Z,100377.22
2022-08-16T08:19:40.276Z,100374.14
2022-08-16T08:22:19.211Z,100367.52
2022-08-16T08:24:49.894Z,100372.07
2022-08-16T08:27:23.561Z,100369.09
2022-08-16T08:30:50.446Z,100372.92
2022-08-16T08:32:59.854Z,100373.84
2022-08-16T08:35:11.950Z,100363.98
2022-08-16T08:37:54.471Z,100368.67
2022-08-16T08:40:24.762Z,100358.20
2022-08-16T08:43:00.698Z,100356.72
2022-08-16T08:45:48.223Z,100360.06
2022-08-16T08:48:08.338Z,100358.67
2022-08-16T08:50:42.956Z,100344.78
2022-08-16T08:53:17.434Z,100348.16
2022-08-16T08:55:59.255Z,100346.76
2022-08-16T08:58:34.058Z,100355.45
2022-08-16T09:01:03.176Z,100351.53
2022-08-16T09:03:38.822Z,100348.46
2022-08-16T09:06:13.438Z,100341.64
2022-08-16T09:08:48.051Z,100341.92
2022-08-16T09:11:20.858Z,100347.41
2022-08-16T09:13:54.299Z,100345.34
2022-08-16T09:17:01.446Z,100345.16
2022-08-16T09:19:04.094Z,100353.18
2022-08-16T09:21:37.749Z,100344.43
2022-08-16T09:24:11.416Z,100345.50
2022-08-16T09:26:46.662Z,100351.25
2022-08-16T09:29:24.275Z,100351.27
2022-08-16T09:31:55.755Z,100348.33
2022-08-16T09:34:28.237Z,100348.39
2022-08-16T09:37:00.396Z,100348.00
2022-08-16T09:39:41.335Z,100338.25
2022-08-16T09:42:06.744Z,100339.84
2022-08-16T09:45:10.781Z,100358.66
2022-08-16T09:47:14.813Z,100352.41
2022-08-16T09:49:51.005Z,100343.08
2022-08-16T09:52:22.347Z,100346.83
2022-08-16T09:54:55.243Z,100338.50
2022-08-16T09:57:28.072Z,100346.50
2022-08-16T10:00:02.226Z,100343.41
2022-08-16T10:02:44.129Z,100356.35
2022-08-16T10:05:11.545Z,100337.52
2022-08-16T10:07:47.351Z,100340.17
2022-08-16T10:10:30.884Z,100343.73
2022-08-16T10:13:16.653Z,100326.37
2022-08-16T10:15:55.871Z,100335.73
2022-08-16T10:18:27.012Z,100331.93
2022-08-16T10:21:00.850Z,100330.09
2022-08-16T10:23:35.287Z,100336.71
2022-08-16T10:27:03.781Z,100337.68
2022-08-16T10:28:43.179Z,100328.52
2022-08-16T10:31:43.353Z,100326.55
2022-08-16T10:33:49.653Z,100330.14
2022-08-16T10:36:38.970Z,100335.25
2022-08-16T10:38:55.495Z,100320.54
2022-08-16T10:41:27.865Z,100332.06
2022-08-16T10:44:02.060Z,100318.81
2022-08-16T10:46:41.569Z,100311.39
2022-08-16T10:49:10.386Z,100313.91
2022-08-16T10:52:02.977Z,100312.33
2022-08-16T10:54:28.911Z,100320.78
2022-08-16T10:56:55.683Z,100314.20
2022-08-16T10:59:39.272Z,100309.08
2022-08-16T11:07:08.731Z,100319.20
2022-08-16T11:09:43.225Z,100309.17
2022-08-16T11:12:16.573Z,100301.05
2022-08-16T11:17:23.484Z,100293.80
2022-08-16T11:22:41.974Z,100295.72
2022-08-16T11:25:59.444Z,100284.23
2022-08-16T11:27:41.469Z,100289.44
2022-08-16T11:30:19.867Z,100295.55
2022-08-16T11:32:49.676Z,100289.08
2022-08-16T11:38:23.306Z,100276.73
2022-08-16T11:40:38.917Z,100280.08
2022-08-16T11:43:16.647Z,100270.48
2022-08-16T11:45:53.895Z,100265.34
2022-08-16T11:48:24.919Z,100272.92
2022-08-16T11:50:57.958Z,100278.36
2022-08-16T11:53:35.732Z,100271.25
2022-08-16T11:56:07.730Z,100270.30
2022-08-16T11:58:41.630Z,100262.43
2022-08-16T12:01:15.501Z,100262.06
2022-08-16T12:03:48.092Z,100259.59
2022-08-16T12:06:24.973Z,100251.57
2022-08-16T12:09:00.924Z,100252.48
2022-08-16T12:11:34.054Z,100249.00
2022-08-16T12:14:08.047Z,100248.56
2022-08-16T12:16:39.466Z,100248.16
2022-08-16T12:19:13.789Z,100254.09
2022-08-16T12:21:58.773Z,100250.02
2022-08-16T12:24:20.419Z,100241.03
2022-08-16T12:26:53.856Z,100235.98
2022-08-16T12:29:29.351Z,100236.52
2022-08-16T12:32:36.094Z,100236.52
2022-08-16T12:34:35.073Z,100231.55
2022-08-16T12:37:11.678Z,100229.55
2022-08-16T12:39:50.550Z,100223.50
2022-08-16T12:42:15.968Z,100214.73
2022-08-16T12:44:50.290Z,100214.73
2022-08-16T12:47:39.982Z,100222.92
2022-08-16T12:50:14.867Z,100226.22
2022-08-16T12:52:52.314Z,100221.43
2022-08-16T12:55:22.099Z,100211.97
2022-08-16T12:57:58.553Z,100210.47
2022-08-16T13:00:33.699Z,100218.53
2022-08-16T13:03:07.954Z,100213.42
2022-08-16T13:05:53.611Z,100220.89
2022-08-16T13:08:20.479Z,100217.77
2022-08-16T13:10:55.036Z,100213.81
2022-08-16T13:13:29.377Z,100216.98
2022-08-16T13:16:15.162Z,100209.50
2022-08-16T13:18:39.366Z,100208.50
2022-08-16T13:21:12.062Z,100206.79
2022-08-16T13:23:44.059Z,100207.30
2022-08-16T13:26:17.365Z,100202.74
2022-08-16T13:28:49.975Z,100197.95
2022-08-16T13:31:24.026Z,100198.70
2022-08-16T13:33:58.685Z,100200.11
2022-08-16T13:36:47.872Z,100196.19
2022-08-16T13:39:06.074Z,100198.17
2022-08-16T13:41:39.023Z,100196.44
2022-08-16T13:44:11.454Z,100201.25
2022-08-16T13:46:46.884Z,100188.28
2022-08-16T13:49:18.957Z,100191.38
2022-08-16T13:51:52.867Z,100185.98
2022-08-16T13:54:27.424Z,100182.47
2022-08-16T13:56:58.672Z,100180.52
2022-08-16T13:59:30.747Z,100174.55
2022-08-16T14:02:06.954Z,100174.47
2022-08-16T14:04:42.513Z,100166.67
2022-08-16T14:07:22.388Z,100170.56
2022-08-16T14:09:50.670Z,100169.67
2022-08-16T14:12:27.406Z,100171.47
2022-08-16T14:15:01.677Z,100168.12
2022-08-16T14:18:14.826Z,100173.71
2022-08-16T14:20:19.061Z,100162.27
2022-08-16T14:22:45.310Z,100162.23
2022-08-16T14:25:22.083Z,100160.19
2022-08-16T14:27:55.133Z,100161.77
2022-08-16T14:30:28.413Z,100157.30
2022-08-16T14:33:01.753Z,100161.09
2022-08-16T14:35:49.359Z,100164.31
2022-08-16T14:38:10.728Z,100166.86
2022-08-16T14:40:47.143Z,100165.95
2022-08-16T14:43:19.108Z,100168.97
2022-08-16T14:45:54.655Z,100174.28
2022-08-16T14:48:27.255Z,100162.70
2022-08-16T14:50:59.591Z,100159.87
2022-08-16T14:53:33.099Z,100164.95
2022-08-16T14:56:05.341Z,100180.16
2022-08-16T14:58:38.336Z,100162.92
2022-08-16T15:01:10.733Z,100167.95
2022-08-16T15:03:44.616Z,100166.50
2022-08-16T15:06:16.669Z,100165.46
2022-08-16T15:08:48.502Z,100168.16
2022-08-16T15:11:22.673Z,100161.61
2022-08-16T15:13:55.190Z,100159.31
2022-08-16T15:16:28.944Z,100159.45
2022-08-16T15:19:01.498Z,100155.42
2022-08-16T15:21:34.148Z,100155.41
2022-08-16T15:24:06.947Z,100143.52
2022-08-16T15:26:45.262Z,100145.16
2022-08-16T15:29:15.023Z,100146.80
2022-08-16T15:31:50.977Z,100154.06
2022-08-16T15:34:26.416Z,100142.59
2022-08-16T15:36:58.985Z,100146.58
2022-08-16T15:39:39.303Z,100145.34
2022-08-16T15:42:11.047Z,100149.72
2022-08-16T15:44:52.959Z,100155.76
2022-08-16T15:47:17.712Z,100147.62
2022-08-16T15:49:54.754Z,100142.82
2022-08-16T15:52:33.319Z,100153.45
2022-08-16T15:55:12.918Z,100147.11
2022-08-16T15:57:44.614Z,100148.72
2022-08-16T16:00:19.854Z,100148.66
2022-08-16T16:03:15.050Z,100150.05
2022-08-16T16:05:50.136Z,100150.17
2022-08-16T16:08:27.819Z,100153.77
2022-08-16T16:11:03.476Z,100159.53
2022-08-16T16:13:37.458Z,100159.37
2022-08-16T16:16:16.635Z,100148.80
2022-08-16T16:18:48.968Z,100154.26
2022-08-16T16:21:20.222Z,100152.46
2022-08-16T16:23:57.779Z,100157.55
2022-08-16T16:26:26.968Z,100166.16
2022-08-16T16:29:08.715Z,100168.75
2022-08-16T16:31:36.185Z,100158.79
2022-08-16T16:34:07.860Z,100155.11
2022-08-16T16:36:43.564Z,100165.53
2022-08-16T16:39:15.543Z,100166.29
2022-08-16T16:41:47.538Z,100161.72
2022-08-16T16:44:31.845Z,100169.06
2022-08-16T16:46:56.660Z,100163.75
2022-08-16T16:49:27.970Z,100168.20
2022-08-16T16:52:07.353Z,100162.06
2022-08-16T16:54:36.048Z,100166.02
2022-08-16T16:57:09.919Z,100166.13
2022-08-16T16:59:42.533Z,100174.09
2022-08-16T17:02:38.944Z,100177.33
2022-08-16T17:04:50.524Z,100165.92
2022-08-16T17:07:24.429Z,100178.66
2022-08-16T17:09:57.119Z,100174.82
2022-08-16T17:12:46.966Z,100174.53
2022-08-16T17:15:05.440Z,100177.94
2022-08-16T17:17:59.978Z,100185.56
2022-08-16T17:20:13.490Z,100181.36
2022-08-16T17:22:45.839Z,100187.28
2022-08-16T17:25:19.615Z,100191.80
2022-08-16T17:27:52.664Z,100182.91
2022-08-16T17:30:45.597Z,100195.42
2022-08-16T17:33:06.865Z,100190.59
2022-08-16T17:35:44.270Z,100187.52
2022-08-16T17:38:38.993Z,100188.42
2022-08-16T17:40:58.632Z,100186.27
2022-08-16T17:43:36.533Z,100183.92
2022-08-16T17:46:50.927Z,100187.81
2022-08-16T17:48:45.102Z,100189.53
2022-08-16T17:51:17.907Z,100188.37
2022-08-16T17:53:50.755Z,100190.45
2022-08-16T17:56:23.805Z,100192.16
2022-08-16T17:58:56.129Z,100188.64
2022-08-16T18:01:29.448Z,100181.23
2022-08-16T18:04:09.405Z,100187.13
2022-08-16T18:06:36.560Z,100185.79
2022-08-16T18:09:10.465Z,100187.84
2022-08-16T18:11:44.713Z,100183.32
2022-08-16T18:14:18.939Z,100180.96
2022-08-16T18:16:52.996Z,100187.53
2022-08-16T18:19:25.164Z,100184.33
2022-08-16T18:22:16.293Z,100191.27
2022-08-16T18:24:50.936Z,100188.91
2022-08-16T18:27:26.231Z,100191.28
2022-08-16T18:29:57.570Z,100188.59
2022-08-16T18:32:29.347Z,100191.60
2022-08-16T18:35:01.412Z,100180.52
2022-08-16T18:37:34.511Z,100181.02
2022-08-16T18:40:07.736Z,100179.52
2022-08-16T18:42:40.377Z,100173.94
2022-08-16T18:45:13.011Z,100180.50
2022-08-16T18:47:45.135Z,100168.72
2022-08-16T18:50:18.617Z,100176.47
2022-08-16T18:52:53.896Z,100178.47
2022-08-16T18:55:28.797Z,100169.91
2022-08-16T18:58:03.736Z,100173.95
2022-08-16T19:00:55.826Z,100172.60
2022-08-16T19:03:16.608Z,100166.73
2022-08-16T19:05:51.658Z,100162.49
2022-08-16T19:08:23.973Z,100163.52
2022-08-16T19:10:56.975Z,100163.67
2022-08-16T19:13:52.979Z,100162.00
2022-08-16T19:16:26.616Z,100166.20
2022-08-16T19:18:58.905Z,100160.66
2022-08-16T19:21:30.996Z,100160.33
2022-08-16T19:24:02.999Z,100160.33
2022-08-16T19:26:35.873Z,100163.67
2022-08-16T19:29:08.626Z,100161.67
2022-08-16T19:31:40.788Z,100162.69
2022-08-16T19:34:14.734Z,100162.69
2022-08-16T19:36:46.758Z,100135.27
2022-08-16T19:39:20.697Z,100135.27
2022-08-16T19:41:54.056Z,100166.03
2022-08-16T19:44:27.841Z,100162.86
2022-08-16T19:46:59.930Z,100162.69
2022-08-16T19:49:32.017Z,100173.63
2022-08-16T19:52:21.594Z,100170.92
2022-08-16T19:54:56.406Z,100163.02
2022-08-16T19:57:29.626Z,100173.26
2022-08-16T20:00:01.835Z,100162.86
2022-08-16T20:02:39.011Z,100174.80
2022-08-16T20:05:11.002Z,100167.38
2022-08-16T20:07:43.900Z,100172.10
2022-08-16T20:10:18.805Z,100160.66
2022-08-16T20:13:01.654Z,100163.50
2022-08-16T20:15:29.995Z,100161.83
2022-08-16T20:18:02.020Z,100155.63
2022-08-16T20:20:33.932Z,100164.18
2022-08-16T20:23:06.955Z,100159.13
2022-08-16T20:25:41.340Z,100161.31
2022-08-16T20:28:12.741Z,100156.71
2022-08-16T20:30:46.680Z,100164.44
2022-08-16T20:33:18.816Z,100163.09
2022-08-16T20:35:51.451Z,100159.20
2022-08-16T20:38:24.684Z,100164.94
2022-08-16T20:40:56.740Z,100166.27
2022-08-16T20:43:28.817Z,100166.59
2022-08-16T20:46:01.139Z,100172.98
2022-08-16T20:48:33.226Z,100172.98
2022-08-16T20:51:06.896Z,100165.92
2022-08-16T20:53:42.958Z,100176.30
2022-08-16T20:56:14.882Z,100175.80
2022-08-16T20:58:46.884Z,100170.23
2022-08-16T21:01:18.962Z,100175.61
2022-08-16T21:03:51.131Z,100181.30
2022-08-16T21:06:24.323Z,100170.87
2022-08-16T21:08:56.493Z,100168.38
2022-08-16T21:11:36.541Z,100172.89
2022-08-16T21:14:16.803Z,100175.27
2022-08-16T21:16:52.801Z,100166.66
2022-08-16T21:19:28.209Z,100178.73
2022-08-16T21:22:16.051Z,100170.67
2022-08-16T21:24:49.915Z,100172.86
2022-08-16T21:30:32.233Z,100175.13
2022-08-16T21:33:05.063Z,100168.85
2022-08-16T21:35:52.621Z,100184.34
2022-08-16T21:38:30.262Z,100172.30
2022-08-16T21:41:03.211Z,100173.11
2022-08-16T21:43:42.964Z,100173.20
2022-08-16T21:46:16.571Z,100178.67
2022-08-16T21:48:49.163Z,100178.16
2022-08-16T21:51:21.333Z,100181.14
2022-08-16T21:53:55.191Z,100182.58
2022-08-16T21:56:36.918Z,100183.22
2022-08-16T21:59:13.167Z,100172.94
2022-08-16T22:01:47.548Z,100173.09
2022-08-16T22:04:38.133Z,100169.55
2022-08-16T22:06:59.576Z,100169.03
2022-08-16T22:09:34.057Z,100163.97
2022-08-16T22:12:07.445Z,100164.61
2022-08-16T22:14:45.917Z,100155.49
2022-08-16T22:17:23.117Z,100164.39
2022-08-16T22:19:57.634Z,100162.01
2022-08-16T22:22:36.054Z,100162.46
2022-08-16T22:25:08.815Z,100161.94
2022-08-16T22:27:44.446Z,100171.14
2022-08-16T22:30:16.720Z,100168.75
2022-08-16T22:32:51.099Z,100162.57
2022-08-16T22:35:23.511Z,100166.55
2022-08-16T22:38:46.467Z,100162.64
2022-08-16T22:40:31.735Z,100167.48
2022-08-16T22:43:09.733Z,100175.96
2022-08-16T22:45:44.365Z,100169.07
2022-08-16T22:48:18.266Z,100172.02
2022-08-16T22:50:51.616Z,100181.20
2022-08-16T22:53:31.373Z,100171.93
2022-08-16T22:56:06.025Z,100179.44
2022-08-16T22:58:39.750Z,100172.70
2022-08-16T23:01:13.733Z,100176.81
2022-08-16T23:03:49.116Z,100178.97
2022-08-16T23:06:21.300Z,100181.94
2022-08-16T23:08:56.507Z,100177.87
2022-08-16T23:11:28.494Z,100182.98
2022-08-16T23:14:04.848Z,100188.63
2022-08-16T23:16:42.193Z,100186.38
2022-08-16T23:19:19.273Z,100185.00
2022-08-16T23:21:53.470Z,100196.03
2022-08-16T23:24:25.928Z,100193.78
2022-08-16T23:26:58.803Z,100180.29
2022-08-16T23:29:30.808Z,100190.46
2022-08-16T23:32:05.908Z,100182.14
2022-08-16T23:34:40.386Z,100191.31
2022-08-16T23:37:12.948Z,100184.56
2022-08-16T23:39:45.736Z,100183.17
2022-08-16T23:42:45.466Z,100178.10
2022-08-16T23:44:58.968Z,100178.24
2022-08-16T23:47:33.022Z,100181.34
2022-08-16T23:50:05.444Z,100185.16
2022-08-16T23:52:53.944Z,100175.59
2022-08-16T23:55:11.576Z,100181.94
2022-08-16T23:57:43.979Z,100184.90
